Overton, Nevada Weather observations

Data are for observation ending at time listed.
 Day   Time    Ave.   Ave.  Ave.  Vector   Max.   Stn.    Total    Solar   Ave.  
  of    of     Air    Rel.  Wind   Wind    Wind   Baro.  Precip.   Rad.    Soil  
Year   Day     Temp.  Hum.  Speed  Dir.    Gust   Pres.                    Temp. 
2016   (PST)    F      %     mph   deg.    mph     mb.     in.     W/m2     F   
------------------------------------------------------------------------------
 125   18:30   88.2    14    0.3   218      2.3   962.3    0.00       8    85.6
 125   18:40   85.6    14    2.1    73      3.4   962.2    0.00       2    85.2
 125   18:50   84.7    15    1.6    69      2.9   962.1    0.00       0    84.8
 125   19:00   83.3    17    0.9    96      2.4   962.0    0.00       0    84.4
 125   19:10   80.9    21    0.6    87      1.9   962.0    0.00       0    84.1
 125   19:20   80.5    20    0.0   213      0.5   962.0    0.00       0    83.6
 125   19:30   79.0    23    0.2   285      1.1   962.0    0.00       0    83.3
 125   19:40   76.9    25    0.4   307      1.4   962.0    0.00       0    82.9
 125   19:50   76.3    26    1.2   311      1.8   961.9    0.00       0    82.4
 125   20:00   75.6    24    1.0   268      2.3   961.9    0.00       0    82.1
 125   20:10   74.6    27    0.6   344      1.8   961.9    0.00       0    81.7
 125   20:20   73.0    29    1.7   330      3.7   961.9    0.00       0    81.3
 125   20:30   72.3    28    1.3   330      2.6   961.9    0.00       0    80.9
 125   20:40   71.6    30    1.6   308      2.0   961.9    0.00       0    80.6
 125   20:50   73.4    25    1.5   287      2.9   961.9    0.00       0    80.2
 125   21:00   74.1    24    2.1   289      3.8   961.9    0.00       0    80.0
 125   21:10   70.6    32    2.5   334      3.7   961.9    0.00       0    79.7
 125   21:20   69.7    32    2.5   342      3.3   962.0    0.00       0    79.4
 125   21:30   70.8    30    2.3   332      3.5   961.9    0.00       0    79.1
 125   21:40   71.4    30    1.6   322      2.3   961.9    0.00       0    78.8
 125   21:50   70.3    32    1.2   314      1.9   961.9    0.00       0    78.5
 125   22:00   69.9    32    1.1   289      2.4   961.9    0.00       0    78.3
 125   22:10   70.6    30    1.7   280      3.4   961.9    0.00       0    78.0
 125   22:20   69.9    31    1.5   304      2.2   961.9    0.00       0    77.8
 125   22:30   69.2    33    1.5   301      2.4   961.8    0.00       0    77.5
 125   22:40   68.3    34    1.7   321      2.1   961.8    0.00       0    77.3
 125   22:50   67.1    36    1.3   332      2.3   961.9    0.00       0    77.0
 125   23:00   66.6    37    1.2   330      2.2   961.8    0.00       0    76.7
 125   23:10   67.0    37    1.1   315      2.3   961.8    0.00       0    76.5
 125   23:20   67.3    35    1.1   269      2.3   961.7    0.00       0    76.2
 125   23:30   67.1    36    1.7   304      3.1   961.6    0.00       0    76.0
 125   23:40   65.1    41    2.2   327      2.8   961.5    0.00       0    75.8
 125   23:50   63.9    42    2.0   316      2.8   961.3    0.00       0    75.5
 126    0:00   66.0    36    1.0   271      2.1   961.3    0.00       0    75.3
 126    0:10   66.1    37    1.7   318      2.9   961.2    0.00       0    75.1
 126    0:20   64.7    40    1.8   353      3.3   961.1    0.00       0    74.8
 126    0:30   64.9    40    1.2   322      2.1   961.1    0.00       0    74.6
 126    0:40   64.6    40    1.0   275      2.2   961.0    0.00       0    74.4
 126    0:50   65.5    38    0.9   282      2.0   961.0    0.00       0    74.3
 126    1:00   64.1    41    1.6   289      2.6   960.9    0.00       0    74.1
 126    1:10   64.0    42    1.9   294      3.1   960.8    0.00       0    73.9
 126    1:20   62.6    45    1.5   298      2.4   960.7    0.00       0    73.7
 126    1:30   62.2    47    1.5   316      2.0   960.6    0.00       0    73.6
 126    1:40   61.4    48    2.2   323      2.7   960.6    0.00       0    73.4
 126    1:50   61.1    49    2.1   320      2.9   960.5    0.00       0    73.1
 126    2:00   61.1    49    2.1   353      3.1   960.5    0.00       0    72.9
 126    2:10   62.5    45    1.2   315      2.3   960.5    0.00       0    72.8
 126    2:20   63.9    42    2.9   258      4.2   960.4    0.00       0    72.6
 126    2:30   64.2    40    1.1   246      3.8   960.6    0.00       0    72.5
 126    2:40   62.9    44    1.0   350      2.5   960.7    0.00       0    72.3
 126    2:50   61.8    45    1.7   358      3.0   960.7    0.00       0    72.1
 126    3:00   61.8    48    1.1    82      4.4   960.8    0.00       0    71.9
 126    3:10   61.3    49    0.9    57      4.5   960.8    0.00       0    71.7
 126    3:20   61.2    49    1.8   231      4.4   960.9    0.00       0    71.5
 126    3:30   61.9    46    1.6   203      3.9   960.8    0.00       0    71.3
 126    3:40   61.8    46    1.4   208      4.9   960.7    0.00       0    71.1
 126    3:50   62.1    45    0.9   124      1.8   960.7    0.00       0    71.0
 126    4:00   60.6    50    1.4    86      2.9   960.7    0.00       0    70.8
 126    4:10   59.2    55    0.2    97      0.9   960.8    0.00       0    70.6
 126    4:20   57.8    58    0.7    73      2.6   961.1    0.00       0    70.4
 126    4:30   58.7    52    3.5    88      5.3   961.2    0.00       0    70.2
 126    4:40   58.6    53    0.9    72      3.2   961.3    0.00       0    70.0
 126    4:50   58.0    56    1.0    76      2.8   961.4    0.00       4    69.8
 126    5:00   58.2    56    1.0   128      3.2   961.5    0.00      13    69.7
 126    5:10   61.2    44    2.5   144      6.6   961.6    0.00      28    69.5
 126    5:20   64.6    37    3.1   152      5.0   961.8    0.00      46    69.5
 126    5:30   66.4    35    2.8   145      5.6   962.0    0.00      71    69.6
 126    5:40   67.5    34    4.0   154      6.5   962.4    0.00      89    69.9
 126    5:50   68.8    33    3.5   151      6.4   962.7    0.00     101    70.3
 126    6:00   69.5    32    4.2   157      6.6   962.9    0.00     127    70.7
 126    6:10   70.3    32    4.2   159      6.9   963.1    0.00     147    71.2
 126    6:20   70.8    33    4.9   160      7.8   963.4    0.00     159    71.7
 126    6:30   71.4    33    4.4   154      7.2   963.6    0.00     184    72.1
 126    6:40   72.0    33    3.5   154      6.5   963.6    0.00     215    72.6
 126    6:50   72.3    33    4.4   162      7.7   963.7    0.00     239    73.3
 126    7:00   73.3    32    3.7   154      6.6   963.8    0.00     208    74.0
 126    7:10   74.6    30    4.1   142      8.0   963.9    0.00     224    74.8
 126    7:20   75.8    29    4.1   135      7.5   963.9    0.00     324    75.6
 126    7:30   76.7    29    4.1   138      7.5   964.1    0.00     377    76.4
 126    7:40   77.3    28    4.2   134      9.4   964.3    0.00     384    77.4
 126    7:50   78.4    26    3.2   128      8.8   964.4    0.00     405    78.2
 126    8:00   79.5    24    3.1   128      7.7   964.5    0.00     413    79.1
 126    8:10   80.6    23    2.3   119      5.0   964.6    0.00     470    80.1
 126    8:20   81.2    22    3.0   145      7.6   964.8    0.00     328    81.0
 126    8:30   81.4    21    3.1   137      5.8   964.8    0.00     241    81.8
 126    8:40   81.6    20    3.7   162      6.3   964.9    0.00     357    82.6
 126    8:50   82.6    19    1.7   154      4.4   964.8    0.00     333    83.4
 126    9:00   83.9    17    2.5   132      6.3   964.8    0.00     364    84.2
 126    9:10   83.9    13    3.9   173      7.4   964.8    0.00     505    84.5
 126    9:20   84.1    13    5.1   159     17.0   964.7    0.00     523    84.9
 126    9:30   84.3    14    4.4    74      8.1   964.6    0.00     605    85.4
 126    9:40   85.0    12    5.7   165     11.6   964.6    0.00     502    86.0
 126    9:50   84.9    12    7.7   161     15.1   964.5    0.00     546    86.4
 126   10:00   85.0    11   10.1   170     17.2   964.4    0.00     470    86.6
 126   10:10   84.9    12   10.5   177     17.9   964.4    0.00     507    86.6
 126   10:20   85.3    12    8.0   165     15.1   964.3    0.00     571    86.7
 126   10:30   86.1    11    7.6   153     13.9   964.2    0.00     676    87.0
 126   10:40   86.7    11    8.6   164     16.1   964.2    0.00     670    87.6
 126   10:50   86.8    11    6.8   152     13.8   964.1    0.00     684    88.1
 126   11:00   87.6    10    6.3   137     12.9   964.0    0.00     786    88.6
 126   11:10   88.0    11    6.9   167     16.1   963.9    0.00     797    89.1
 126   11:20   87.2    11    7.0   168     18.1   963.7    0.00     658    89.2
 126   11:30   87.9    11    7.7   172     16.4   963.5    0.00     745    89.2
 126   11:40   87.5    11    8.2   177     16.4   963.4    0.00     666    89.3
 126   11:50   87.8    11    6.9   171     12.6   963.2    0.00     823    89.1
 126   12:00   88.1    11    7.8   179     16.4   963.0    0.00     986    89.0
 126   12:10   88.4    11    9.2   182     15.7   962.8    0.00     917    88.6
 126   12:20   88.5    11   10.8   199     16.8   962.6    0.00     885    88.1
 126   12:30   88.8    11    8.1   197     15.5   962.5    0.00     879    87.8
 126   12:40   89.3    10   10.4   182     16.6   962.3    0.00     872    87.8
 126   12:50   89.2    10    9.2   189     18.3   962.3    0.00     865    88.1
 126   13:00   89.6    10    7.4   225     16.4   962.0    0.00     858    88.3
 126   13:10   89.7    10   10.8   194     20.4   961.9    0.00     801    88.2
 126   13:20   89.6    10    9.9   196     19.1   961.8    0.00     808    88.0
 126   13:30   90.0    10    9.5   188     16.8   961.8    0.00     801    87.8
 126   13:40   90.5    10    8.6   178     16.4   961.6    0.00     786    87.7
 126   13:50   90.4    10    9.4   198     18.9   961.5    0.00     802    87.5
 126   14:00   90.7    10    9.1   221     17.5   961.4    0.00     753    87.3
 126   14:10   89.5    10    9.5   206     17.2   961.4    0.00     518    87.3
 126   14:20   89.0    10    9.3   207     19.6   961.1    0.00     470    87.5
 126   14:30   88.8    11    9.3   200     19.6   960.9    0.00     389    87.8
 126   14:40   88.8    10    8.6   207     17.2   960.7    0.00     376    87.9
 126   14:50   88.5    10   10.2   209     17.7   960.5    0.00     375    88.1
 126   15:00   88.2    10   10.8   199     18.9   960.4    0.00     389    88.1
 126   15:10   88.2    10    9.5   198     19.4   960.2    0.00     377    88.2
 126   15:20   88.2    10   12.1   186     20.5   960.1    0.00     447    88.1
 126   15:30   88.1    10   10.4   209     17.1   960.1    0.00     396    88.0
 126   15:40   87.7    10   11.2   201     18.0   960.0    0.00     265    87.9
 126   15:50   87.5     9   10.8   192     19.3   959.8    0.00     278    87.8
 126   16:00   87.2     9   12.5   201     25.6   959.6    0.00     298    87.6
 126   16:10   87.8     9    7.8   198     13.2   959.5    0.00     370    87.4
 126   16:20   87.9     9    9.4   178     16.0   959.5    0.00     325    87.3
 126   16:30   87.5     9   11.1   189     22.7   959.3    0.00     225    87.3
 126   16:40   87.2     9   11.6   192     19.1   959.1    0.00     256    87.2
 126   16:50   87.4     9    9.8   189     20.2   959.0    0.00     217    87.0
 126   17:00   87.3    10   10.4   192     17.5   959.0    0.00     265    86.8
 126   17:10   87.1    10   13.0   192     20.8   959.0    0.00     225    86.6
 126   17:20   86.7    10   13.4   190     20.2   958.9    0.00     211    86.4
 126   17:30   86.6    10   12.3   188     20.0   958.9    0.00     184    86.2
 126   17:40   86.5    10    9.6   181     14.3   958.9    0.00     137    86.1
 126   17:50   85.9    10   10.5   185     15.6   958.9    0.00      71    85.8
 126   18:00   85.3    11    9.4   194     14.1   958.9    0.00      39    85.6
 126   18:10   85.0    11    6.6   196     13.2   958.8    0.00      26    85.3
 126   18:20   84.7    11    9.0   189     15.6   958.7    0.00      13    85.0

Return to Overton, Nevada graphs page.


Western Regional Climate Center,wrcc@dri.edu